sensor_id;sensor_type;location;lat;lon;timestamp;temperature;humidity
9837;DHT22;4957;51.412;6.724;2023-02-15T00:01:43;5.70;98.70
9837;DHT22;4957;51.412;6.724;2023-02-15T00:04:09;5.70;98.60
9837;DHT22;4957;51.412;6.724;2023-02-15T00:06:35;5.70;98.70
9837;DHT22;4957;51.412;6.724;2023-02-15T00:09:02;5.70;98.70
9837;DHT22;4957;51.412;6.724;2023-02-15T00:11:28;5.60;98.60
9837;DHT22;4957;51.412;6.724;2023-02-15T00:14:11;5.60;98.70
9837;DHT22;4957;51.412;6.724;2023-02-15T00:16:38;5.60;98.70
9837;DHT22;4957;51.412;6.724;2023-02-15T00:19:05;5.60;98.70
9837;DHT22;4957;51.412;6.724;2023-02-15T00:21:32;5.60;98.80
9837;DHT22;4957;51.412;6.724;2023-02-15T00:24:00;5.50;98.70
9837;DHT22;4957;51.412;6.724;2023-02-15T00:26:26;5.50;98.80
9837;DHT22;4957;51.412;6.724;2023-02-15T00:28:52;5.50;98.80
9837;DHT22;4957;51.412;6.724;2023-02-15T00:31:18;5.50;98.80
9837;DHT22;4957;51.412;6.724;2023-02-15T00:33:44;5.50;98.80
9837;DHT22;4957;51.412;6.724;2023-02-15T00:36:10;5.50;98.80
9837;DHT22;4957;51.412;6.724;2023-02-15T00:38:36;5.60;98.80
9837;DHT22;4957;51.412;6.724;2023-02-15T00:41:04;5.50;98.80
9837;DHT22;4957;51.412;6.724;2023-02-15T00:43:32;5.50;99.00
9837;DHT22;4957;51.412;6.724;2023-02-15T00:45:58;5.50;98.70
9837;DHT22;4957;51.412;6.724;2023-02-15T00:48:24;5.50;98.60
9837;DHT22;4957;51.412;6.724;2023-02-15T00:50:52;5.40;98.70
9837;DHT22;4957;51.412;6.724;2023-02-15T00:53:18;5.40;98.70
9837;DHT22;4957;51.412;6.724;2023-02-15T00:55:44;5.40;98.70
9837;DHT22;4957;51.412;6.724;2023-02-15T00:58:11;5.40;98.70
9837;DHT22;4957;51.412;6.724;2023-02-15T01:00:37;5.40;98.80
9837;DHT22;4957;51.412;6.724;2023-02-15T01:03:04;5.30;98.80
9837;DHT22;4957;51.412;6.724;2023-02-15T01:05:30;5.30;98.80
9837;DHT22;4957;51.412;6.724;2023-02-15T01:07:56;5.30;98.90
9837;DHT22;4957;51.412;6.724;2023-02-15T01:10:23;5.30;98.90
9837;DHT22;4957;51.412;6.724;2023-02-15T01:12:50;5.30;98.80
9837;DHT22;4957;51.412;6.724;2023-02-15T01:15:16;5.30;98.80
9837;DHT22;4957;51.412;6.724;2023-02-15T01:17:42;5.30;98.90
9837;DHT22;4957;51.412;6.724;2023-02-15T01:20:11;5.20;98.90
9837;DHT22;4957;51.412;6.724;2023-02-15T01:22:37;5.20;98.80
9837;DHT22;4957;51.412;6.724;2023-02-15T01:25:03;5.20;98.90
9837;DHT22;4957;51.412;6.724;2023-02-15T01:27:29;5.10;98.80
9837;DHT22;4957;51.412;6.724;2023-02-15T01:29:56;5.10;98.80
9837;DHT22;4957;51.412;6.724;2023-02-15T01:32:22;5.10;98.90
9837;DHT22;4957;51.412;6.724;2023-02-15T01:34:48;5.10;98.90
9837;DHT22;4957;51.412;6.724;2023-02-15T01:37:13;5.10;98.90
9837;DHT22;4957;51.412;6.724;2023-02-15T01:39:39;5.10;98.90
9837;DHT22;4957;51.412;6.724;2023-02-15T01:42:05;5.10;99.00
9837;DHT22;4957;51.412;6.724;2023-02-15T01:44:53;5.10;99.00
9837;DHT22;4957;51.412;6.724;2023-02-15T01:47:43;5.10;99.00
9837;DHT22;4957;51.412;6.724;2023-02-15T01:50:25;5.10;99.00
9837;DHT22;4957;51.412;6.724;2023-02-15T01:56:04;5.00;98.80
9837;DHT22;4957;51.412;6.724;2023-02-15T01:58:32;5.00;98.90
9837;DHT22;4957;51.412;6.724;2023-02-15T02:00:59;5.00;99.00
9837;DHT22;4957;51.412;6.724;2023-02-15T02:06:24;5.00;98.90
9837;DHT22;4957;51.412;6.724;2023-02-15T02:08:52;4.90;98.90
9837;DHT22;4957;51.412;6.724;2023-02-15T02:11:18;4.90;98.90
9837;DHT22;4957;51.412;6.724;2023-02-15T02:13:44;4.90;98.90
9837;DHT22;4957;51.412;6.724;2023-02-15T02:35:36;4.70;99.10
9837;DHT22;4957;51.412;6.724;2023-02-15T02:38:16;4.70;99.10
9837;DHT22;4957;51.412;6.724;2023-02-15T02:43:55;4.70;99.10
9837;DHT22;4957;51.412;6.724;2023-02-15T02:49:15;4.60;99.10
9837;DHT22;4957;51.412;6.724;2023-02-15T02:51:41;4.60;99.20
9837;DHT22;4957;51.412;6.724;2023-02-15T02:54:07;4.60;99.20
9837;DHT22;4957;51.412;6.724;2023-02-15T02:56:40;4.60;99.20
9837;DHT22;4957;51.412;6.724;2023-02-15T02:59:16;4.60;99.10
9837;DHT22;4957;51.412;6.724;2023-02-15T03:02:13;4.60;99.10
9837;DHT22;4957;51.412;6.724;2023-02-15T03:04:47;4.60;99.20
9837;DHT22;4957;51.412;6.724;2023-02-15T03:07:19;4.60;99.20
9837;DHT22;4957;51.412;6.724;2023-02-15T03:09:51;4.60;99.20
9837;DHT22;4957;51.412;6.724;2023-02-15T03:12:34;4.60;99.20
9837;DHT22;4957;51.412;6.724;2023-02-15T03:15:10;4.60;99.20
9837;DHT22;4957;51.412;6.724;2023-02-15T03:17:40;4.60;99.20
9837;DHT22;4957;51.412;6.724;2023-02-15T03:22:44;4.60;99.20
9837;DHT22;4957;51.412;6.724;2023-02-15T03:27:48;4.50;99.20
9837;DHT22;4957;51.412;6.724;2023-02-15T03:30:15;4.50;99.20
9837;DHT22;4957;51.412;6.724;2023-02-15T03:32:43;4.50;99.20
9837;DHT22;4957;51.412;6.724;2023-02-15T03:35:10;4.40;99.20
9837;DHT22;4957;51.412;6.724;2023-02-15T03:37:42;4.40;99.30
9837;DHT22;4957;51.412;6.724;2023-02-15T03:40:29;4.40;99.30
9837;DHT22;4957;51.412;6.724;2023-02-15T03:45:57;4.40;99.30
9837;DHT22;4957;51.412;6.724;2023-02-15T03:48:37;4.40;99.30
9837;DHT22;4957;51.412;6.724;2023-02-15T03:51:10;4.40;99.30
9837;DHT22;4957;51.412;6.724;2023-02-15T03:53:57;4.40;99.40
9837;DHT22;4957;51.412;6.724;2023-02-15T03:56:24;4.30;99.30
9837;DHT22;4957;51.412;6.724;2023-02-15T03:58:50;4.30;99.40
9837;DHT22;4957;51.412;6.724;2023-02-15T04:01:40;4.30;99.40
9837;DHT22;4957;51.412;6.724;2023-02-15T04:04:34;4.30;99.40
9837;DHT22;4957;51.412;6.724;2023-02-15T04:07:01;4.30;99.40
9837;DHT22;4957;51.412;6.724;2023-02-15T04:09:27;4.30;99.40
9837;DHT22;4957;51.412;6.724;2023-02-15T04:12:11;4.30;99.40
9837;DHT22;4957;51.412;6.724;2023-02-15T04:14:37;4.30;99.40
9837;DHT22;4957;51.412;6.724;2023-02-15T04:17:21;4.20;99.40
9837;DHT22;4957;51.412;6.724;2023-02-15T04:19:47;4.20;99.40
9837;DHT22;4957;51.412;6.724;2023-02-15T04:22:31;4.20;99.40
9837;DHT22;4957;51.412;6.724;2023-02-15T04:25:15;4.20;99.50
9837;DHT22;4957;51.412;6.724;2023-02-15T04:27:44;4.20;99.50
9837;DHT22;4957;51.412;6.724;2023-02-15T04:30:12;4.20;99.50
9837;DHT22;4957;51.412;6.724;2023-02-15T04:32:38;4.10;99.50
9837;DHT22;4957;51.412;6.724;2023-02-15T04:35:05;4.10;99.50
9837;DHT22;4957;51.412;6.724;2023-02-15T04:37:31;4.10;99.90
9837;DHT22;4957;51.412;6.724;2023-02-15T04:39:57;4.10;99.60
9837;DHT22;4957;51.412;6.724;2023-02-15T04:42:26;4.10;99.70
9837;DHT22;4957;51.412;6.724;2023-02-15T04:44:53;4.10;99.60
9837;DHT22;4957;51.412;6.724;2023-02-15T04:47:19;4.00;99.60
9837;DHT22;4957;51.412;6.724;2023-02-15T04:49:45;4.10;99.70
9837;DHT22;4957;51.412;6.724;2023-02-15T04:52:11;4.00;99.70
9837;DHT22;4957;51.412;6.724;2023-02-15T04:54:36;4.00;99.70
9837;DHT22;4957;51.412;6.724;2023-02-15T04:57:03;4.00;99.70
9837;DHT22;4957;51.412;6.724;2023-02-15T04:59:29;4.00;99.70
9837;DHT22;4957;51.412;6.724;2023-02-15T05:01:55;4.00;99.70
9837;DHT22;4957;51.412;6.724;2023-02-15T05:04:21;4.00;99.70
9837;DHT22;4957;51.412;6.724;2023-02-15T05:06:46;4.00;99.70
9837;DHT22;4957;51.412;6.724;2023-02-15T05:09:12;4.00;99.70
9837;DHT22;4957;51.412;6.724;2023-02-15T05:11:38;3.90;99.60
9837;DHT22;4957;51.412;6.724;2023-02-15T05:14:04;3.90;99.60
9837;DHT22;4957;51.412;6.724;2023-02-15T05:16:30;3.90;99.60
9837;DHT22;4957;51.412;6.724;2023-02-15T05:18:56;3.90;99.60
9837;DHT22;4957;51.412;6.724;2023-02-15T05:21:22;3.90;99.60
9837;DHT22;4957;51.412;6.724;2023-02-15T05:23:47;3.90;99.60
9837;DHT22;4957;51.412;6.724;2023-02-15T05:26:17;3.90;99.70
9837;DHT22;4957;51.412;6.724;2023-02-15T05:29:02;3.90;99.70
9837;DHT22;4957;51.412;6.724;2023-02-15T05:31:30;3.90;99.80
9837;DHT22;4957;51.412;6.724;2023-02-15T05:33:57;3.90;99.60
9837;DHT22;4957;51.412;6.724;2023-02-15T05:36:22;3.90;99.70
9837;DHT22;4957;51.412;6.724;2023-02-15T05:38:48;3.90;99.60
9837;DHT22;4957;51.412;6.724;2023-02-15T05:41:14;3.90;99.70
9837;DHT22;4957;51.412;6.724;2023-02-15T05:43:40;3.90;99.70
9837;DHT22;4957;51.412;6.724;2023-02-15T05:46:06;3.80;99.60
9837;DHT22;4957;51.412;6.724;2023-02-15T05:48:33;3.80;99.60
9837;DHT22;4957;51.412;6.724;2023-02-15T05:51:03;3.80;99.60
9837;DHT22;4957;51.412;6.724;2023-02-15T05:53:32;3.80;99.60
9837;DHT22;4957;51.412;6.724;2023-02-15T05:55:58;3.80;99.70
9837;DHT22;4957;51.412;6.724;2023-02-15T05:58:29;3.80;99.80
9837;DHT22;4957;51.412;6.724;2023-02-15T06:00:56;3.80;99.80
9837;DHT22;4957;51.412;6.724;2023-02-15T06:03:22;3.80;99.80
9837;DHT22;4957;51.412;6.724;2023-02-15T06:05:48;3.70;99.70
9837;DHT22;4957;51.412;6.724;2023-02-15T06:08:14;3.70;99.80
9837;DHT22;4957;51.412;6.724;2023-02-15T06:10:40;3.70;99.80
9837;DHT22;4957;51.412;6.724;2023-02-15T06:13:06;3.70;99.80
9837;DHT22;4957;51.412;6.724;2023-02-15T06:15:32;3.70;99.80
9837;DHT22;4957;51.412;6.724;2023-02-15T06:17:58;3.80;99.80
9837;DHT22;4957;51.412;6.724;2023-02-15T06:20:24;3.70;99.70
9837;DHT22;4957;51.412;6.724;2023-02-15T06:22:50;3.70;99.70
9837;DHT22;4957;51.412;6.724;2023-02-15T06:25:16;3.70;99.80
9837;DHT22;4957;51.412;6.724;2023-02-15T06:27:42;3.70;99.80
9837;DHT22;4957;51.412;6.724;2023-02-15T06:30:09;3.70;99.80
9837;DHT22;4957;51.412;6.724;2023-02-15T06:32:35;3.70;99.80
9837;DHT22;4957;51.412;6.724;2023-02-15T06:35:01;3.70;99.80
9837;DHT22;4957;51.412;6.724;2023-02-15T06:37:27;3.70;99.80
9837;DHT22;4957;51.412;6.724;2023-02-15T06:39:52;3.60;99.80
9837;DHT22;4957;51.412;6.724;2023-02-15T06:42:18;3.60;99.80
9837;DHT22;4957;51.412;6.724;2023-02-15T06:44:44;3.60;99.80
9837;DHT22;4957;51.412;6.724;2023-02-15T06:47:10;3.60;99.80
9837;DHT22;4957;51.412;6.724;2023-02-15T06:49:37;3.60;99.80
9837;DHT22;4957;51.412;6.724;2023-02-15T06:52:03;3.50;99.80
9837;DHT22;4957;51.412;6.724;2023-02-15T06:54:29;3.60;99.90
9837;DHT22;4957;51.412;6.724;2023-02-15T06:56:55;3.60;99.90
9837;DHT22;4957;51.412;6.724;2023-02-15T06:59:20;3.50;99.90
9837;DHT22;4957;51.412;6.724;2023-02-15T07:01:46;3.60;99.90
9837;DHT22;4957;51.412;6.724;2023-02-15T07:04:12;3.60;99.90
9837;DHT22;4957;51.412;6.724;2023-02-15T07:06:38;3.60;99.90
9837;DHT22;4957;51.412;6.724;2023-02-15T07:09:04;3.50;99.90
9837;DHT22;4957;51.412;6.724;2023-02-15T07:11:30;3.50;99.90
9837;DHT22;4957;51.412;6.724;2023-02-15T07:14:14;3.50;99.90
9837;DHT22;4957;51.412;6.724;2023-02-15T07:16:40;3.50;99.90
9837;DHT22;4957;51.412;6.724;2023-02-15T07:19:06;3.50;99.90
9837;DHT22;4957;51.412;6.724;2023-02-15T07:21:33;3.60;99.90
9837;DHT22;4957;51.412;6.724;2023-02-15T07:23:59;3.60;99.90
9837;DHT22;4957;51.412;6.724;2023-02-15T07:26:25;3.60;99.90
9837;DHT22;4957;51.412;6.724;2023-02-15T07:28:51;3.60;99.90
9837;DHT22;4957;51.412;6.724;2023-02-15T07:31:17;3.60;99.90
9837;DHT22;4957;51.412;6.724;2023-02-15T07:33:43;3.60;99.90
9837;DHT22;4957;51.412;6.724;2023-02-15T07:36:09;3.60;99.90
9837;DHT22;4957;51.412;6.724;2023-02-15T07:38:38;3.60;99.90
9837;DHT22;4957;51.412;6.724;2023-02-15T07:41:10;3.60;99.90
9837;DHT22;4957;51.412;6.724;2023-02-15T07:43:39;3.60;99.90
9837;DHT22;4957;51.412;6.724;2023-02-15T07:46:08;3.60;99.90
9837;DHT22;4957;51.412;6.724;2023-02-15T07:48:35;3.70;99.90
9837;DHT22;4957;51.412;6.724;2023-02-15T07:51:03;3.70;99.90
9837;DHT22;4957;51.412;6.724;2023-02-15T07:53:29;3.80;99.90
9837;DHT22;4957;51.412;6.724;2023-02-15T07:55:58;3.80;99.90
9837;DHT22;4957;51.412;6.724;2023-02-15T07:58:25;3.90;99.90
9837;DHT22;4957;51.412;6.724;2023-02-15T08:01:11;3.90;99.90
9837;DHT22;4957;51.412;6.724;2023-02-15T08:03:36;4.00;99.90
9837;DHT22;4957;51.412;6.724;2023-02-15T08:06:02;4.00;99.90
9837;DHT22;4957;51.412;6.724;2023-02-15T08:08:28;4.10;99.90
9837;DHT22;4957;51.412;6.724;2023-02-15T08:11:05;4.10;99.90
9837;DHT22;4957;51.412;6.724;2023-02-15T08:16:41;4.20;99.90
9837;DHT22;4957;51.412;6.724;2023-02-15T08:19:20;4.20;99.90
9837;DHT22;4957;51.412;6.724;2023-02-15T08:21:49;4.30;99.90
9837;DHT22;4957;51.412;6.724;2023-02-15T08:24:16;4.30;99.90
9837;DHT22;4957;51.412;6.724;2023-02-15T08:26:43;4.30;99.90
9837;DHT22;4957;51.412;6.724;2023-02-15T08:29:10;4.40;99.90
9837;DHT22;4957;51.412;6.724;2023-02-15T08:31:37;4.40;99.90
9837;DHT22;4957;51.412;6.724;2023-02-15T08:34:03;4.40;99.90
9837;DHT22;4957;51.412;6.724;2023-02-15T08:36:30;4.40;99.90
9837;DHT22;4957;51.412;6.724;2023-02-15T08:39:02;4.50;99.90
9837;DHT22;4957;51.412;6.724;2023-02-15T08:41:30;4.50;99.90
9837;DHT22;4957;51.412;6.724;2023-02-15T08:43:58;4.50;99.90
9837;DHT22;4957;51.412;6.724;2023-02-15T08:46:30;4.50;99.90
9837;DHT22;4957;51.412;6.724;2023-02-15T08:48:56;4.60;99.90
9837;DHT22;4957;51.412;6.724;2023-02-15T08:51:25;4.60;99.90
9837;DHT22;4957;51.412;6.724;2023-02-15T08:53:56;4.70;99.90
9837;DHT22;4957;51.412;6.724;2023-02-15T08:56:27;4.70;99.90
9837;DHT22;4957;51.412;6.724;2023-02-15T08:58:54;4.80;99.90
9837;DHT22;4957;51.412;6.724;2023-02-15T09:01:23;4.80;99.90
9837;DHT22;4957;51.412;6.724;2023-02-15T09:03:51;4.80;99.90
9837;DHT22;4957;51.412;6.724;2023-02-15T09:06:19;4.90;99.90
9837;DHT22;4957;51.412;6.724;2023-02-15T09:08:46;4.90;99.90
9837;DHT22;4957;51.412;6.724;2023-02-15T09:11:16;4.90;99.90
9837;DHT22;4957;51.412;6.724;2023-02-15T09:13:49;5.00;99.90
9837;DHT22;4957;51.412;6.724;2023-02-15T09:16:15;5.10;99.90
9837;DHT22;4957;51.412;6.724;2023-02-15T09:18:42;5.20;99.90
9837;DHT22;4957;51.412;6.724;2023-02-15T09:21:16;5.20;99.90
9837;DHT22;4957;51.412;6.724;2023-02-15T09:23:44;5.20;99.90
9837;DHT22;4957;51.412;6.724;2023-02-15T09:26:12;5.30;99.90
9837;DHT22;4957;51.412;6.724;2023-02-15T09:28:39;5.30;99.90
9837;DHT22;4957;51.412;6.724;2023-02-15T09:33:35;5.50;99.90
9837;DHT22;4957;51.412;6.724;2023-02-15T09:36:05;5.60;99.90
9837;DHT22;4957;51.412;6.724;2023-02-15T09:38:31;5.60;99.90
9837;DHT22;4957;51.412;6.724;2023-02-15T09:47:00;5.80;99.90
9837;DHT22;4957;51.412;6.724;2023-02-15T10:25:29;6.80;98.70
9837;DHT22;4957;51.412;6.724;2023-02-15T10:28:05;7.00;98.50
9837;DHT22;4957;51.412;6.724;2023-02-15T10:30:53;7.00;98.50
9837;DHT22;4957;51.412;6.724;2023-02-15T10:33:27;7.00;98.50
9837;DHT22;4957;51.412;6.724;2023-02-15T10:41:33;7.20;98.10
9837;DHT22;4957;51.412;6.724;2023-02-15T10:50:06;7.40;97.90
9837;DHT22;4957;51.412;6.724;2023-02-15T10:55:47;7.60;97.90
9837;DHT22;4957;51.412;6.724;2023-02-15T11:06:19;7.80;97.60
9837;DHT22;4957;51.412;6.724;2023-02-15T11:08:55;7.80;97.70
9837;DHT22;4957;51.412;6.724;2023-02-15T11:11:32;7.80;97.70
9837;DHT22;4957;51.412;6.724;2023-02-15T11:14:19;7.90;97.80
9837;DHT22;4957;51.412;6.724;2023-02-15T11:16:49;7.90;97.80
9837;DHT22;4957;51.412;6.724;2023-02-15T11:19:28;8.00;97.80
9837;DHT22;4957;51.412;6.724;2023-02-15T11:21:59;8.00;97.70
9837;DHT22;4957;51.412;6.724;2023-02-15T11:24:28;8.10;97.80
9837;DHT22;4957;51.412;6.724;2023-02-15T11:32:39;8.40;97.70
9837;DHT22;4957;51.412;6.724;2023-02-15T11:38:01;8.40;97.50
9837;DHT22;4957;51.412;6.724;2023-02-15T11:40:51;8.50;97.40
9837;DHT22;4957;51.412;6.724;2023-02-15T11:43:31;8.50;97.30
9837;DHT22;4957;51.412;6.724;2023-02-15T11:45:58;8.60;97.30
9837;DHT22;4957;51.412;6.724;2023-02-15T11:48:23;8.60;97.10
9837;DHT22;4957;51.412;6.724;2023-02-15T11:50:49;8.70;97.10
9837;DHT22;4957;51.412;6.724;2023-02-15T11:53:20;8.80;97.10
9837;DHT22;4957;51.412;6.724;2023-02-15T11:55:48;8.90;96.80
9837;DHT22;4957;51.412;6.724;2023-02-15T12:00:44;9.00;96.70
9837;DHT22;4957;51.412;6.724;2023-02-15T12:03:46;9.10;96.60
9837;DHT22;4957;51.412;6.724;2023-02-15T12:06:21;9.10;96.30
9837;DHT22;4957;51.412;6.724;2023-02-15T12:08:55;9.20;96.40
9837;DHT22;4957;51.412;6.724;2023-02-15T12:11:34;9.20;96.30
9837;DHT22;4957;51.412;6.724;2023-02-15T12:14:03;9.20;96.10
9837;DHT22;4957;51.412;6.724;2023-02-15T12:16:39;9.30;96.00
9837;DHT22;4957;51.412;6.724;2023-02-15T12:19:28;9.30;95.80
9837;DHT22;4957;51.412;6.724;2023-02-15T12:21:56;9.40;95.70
9837;DHT22;4957;51.412;6.724;2023-02-15T12:24:38;9.40;95.70
9837;DHT22;4957;51.412;6.724;2023-02-15T12:27:27;9.50;95.40
9837;DHT22;4957;51.412;6.724;2023-02-15T12:32:36;9.60;94.90
9837;DHT22;4957;51.412;6.724;2023-02-15T12:35:24;9.70;94.80
9837;DHT22;4957;51.412;6.724;2023-02-15T12:37:55;9.70;94.90
9837;DHT22;4957;51.412;6.724;2023-02-15T12:40:30;9.80;95.10
9837;DHT22;4957;51.412;6.724;2023-02-15T12:42:56;9.80;94.70
9837;DHT22;4957;51.412;6.724;2023-02-15T12:45:34;9.90;94.50
9837;DHT22;4957;51.412;6.724;2023-02-15T12:50:39;9.90;94.20
9837;DHT22;4957;51.412;6.724;2023-02-15T12:53:32;10.00;93.80
9837;DHT22;4957;51.412;6.724;2023-02-15T12:56:01;10.10;93.60
9837;DHT22;4957;51.412;6.724;2023-02-15T12:58:30;10.10;93.40
9837;DHT22;4957;51.412;6.724;2023-02-15T13:01:18;10.20;93.10
9837;DHT22;4957;51.412;6.724;2023-02-15T13:04:08;10.20;93.10
9837;DHT22;4957;51.412;6.724;2023-02-15T13:06:49;10.20;93.00
9837;DHT22;4957;51.412;6.724;2023-02-15T13:11:57;10.40;92.70
9837;DHT22;4957;51.412;6.724;2023-02-15T13:14:34;10.40;92.60
9837;DHT22;4957;51.412;6.724;2023-02-15T13:17:02;10.50;92.40
9837;DHT22;4957;51.412;6.724;2023-02-15T13:19:43;10.50;92.40
9837;DHT22;4957;51.412;6.724;2023-02-15T13:22:21;10.50;92.20
9837;DHT22;4957;51.412;6.724;2023-02-15T13:24:53;10.60;92.00
9837;DHT22;4957;51.412;6.724;2023-02-15T13:27:22;10.60;92.00
9837;DHT22;4957;51.412;6.724;2023-02-15T13:29:51;10.60;92.00
9837;DHT22;4957;51.412;6.724;2023-02-15T13:32:30;10.70;91.90
9837;DHT22;4957;51.412;6.724;2023-02-15T13:35:00;10.70;91.70
9837;DHT22;4957;51.412;6.724;2023-02-15T13:41:03;10.80;91.60
9837;DHT22;4957;51.412;6.724;2023-02-15T13:49:18;11.10;91.20
9837;DHT22;4957;51.412;6.724;2023-02-15T13:54:48;11.20;91.20
9837;DHT22;4957;51.412;6.724;2023-02-15T14:07:22;11.40;90.70
9837;DHT22;4957;51.412;6.724;2023-02-15T14:09:40;11.40;90.60
9837;DHT22;4957;51.412;6.724;2023-02-15T14:17:55;11.50;90.30
9837;DHT22;4957;51.412;6.724;2023-02-15T14:20:39;11.60;90.30
9837;DHT22;4957;51.412;6.724;2023-02-15T14:28:28;11.70;90.00
9837;DHT22;4957;51.412;6.724;2023-02-15T14:30:56;11.70;89.90
9837;DHT22;4957;51.412;6.724;2023-02-15T14:33:35;11.70;89.70
9837;DHT22;4957;51.412;6.724;2023-02-15T14:36:04;11.70;89.20
9837;DHT22;4957;51.412;6.724;2023-02-15T14:38:39;11.70;89.70
9837;DHT22;4957;51.412;6.724;2023-02-15T14:41:41;11.70;89.40
9837;DHT22;4957;51.412;6.724;2023-02-15T14:44:27;11.70;89.20
9837;DHT22;4957;51.412;6.724;2023-02-15T14:47:04;11.70;89.50
9837;DHT22;4957;51.412;6.724;2023-02-15T14:49:33;11.80;89.40
9837;DHT22;4957;51.412;6.724;2023-02-15T14:52:06;11.70;89.90
9837;DHT22;4957;51.412;6.724;2023-02-15T14:59:41;11.80;89.30
9837;DHT22;4957;51.412;6.724;2023-02-15T15:04:41;11.80;89.30
9837;DHT22;4957;51.412;6.724;2023-02-15T15:07:18;11.80;88.70
9837;DHT22;4957;51.412;6.724;2023-02-15T15:09:48;11.80;88.80
9837;DHT22;4957;51.412;6.724;2023-02-15T15:14:49;11.80;89.00
9837;DHT22;4957;51.412;6.724;2023-02-15T15:20:19;11.90;87.90
9837;DHT22;4957;51.412;6.724;2023-02-15T15:26:31;11.90;88.00
9837;DHT22;4957;51.412;6.724;2023-02-15T15:31:14;11.90;88.10
9837;DHT22;4957;51.412;6.724;2023-02-15T15:34:24;11.90;87.90
9837;DHT22;4957;51.412;6.724;2023-02-15T15:40:16;11.90;88.10
9837;DHT22;4957;51.412;6.724;2023-02-15T15:42:50;11.90;88.00
9837;DHT22;4957;51.412;6.724;2023-02-15T15:48:38;11.90;87.80
9837;DHT22;4957;51.412;6.724;2023-02-15T15:53:43;11.90;87.40
9837;DHT22;4957;51.412;6.724;2023-02-15T15:56:17;11.90;87.30
9837;DHT22;4957;51.412;6.724;2023-02-15T15:58:50;11.90;87.30
9837;DHT22;4957;51.412;6.724;2023-02-15T16:01:25;11.90;87.20
9837;DHT22;4957;51.412;6.724;2023-02-15T16:03:53;11.80;87.00
9837;DHT22;4957;51.412;6.724;2023-02-15T16:06:33;11.80;87.50
9837;DHT22;4957;51.412;6.724;2023-02-15T16:09:10;11.80;86.70
9837;DHT22;4957;51.412;6.724;2023-02-15T16:11:37;11.80;87.00
9837;DHT22;4957;51.412;6.724;2023-02-15T16:14:34;11.80;87.50
9837;DHT22;4957;51.412;6.724;2023-02-15T16:16:59;11.80;87.10
9837;DHT22;4957;51.412;6.724;2023-02-15T16:19:34;11.70;87.30
9837;DHT22;4957;51.412;6.724;2023-02-15T16:22:02;11.70;87.20
9837;DHT22;4957;51.412;6.724;2023-02-15T16:27:14;11.70;87.60
9837;DHT22;4957;51.412;6.724;2023-02-15T16:29:44;11.70;87.30
9837;DHT22;4957;51.412;6.724;2023-02-15T16:35:00;11.60;87.40
9837;DHT22;4957;51.412;6.724;2023-02-15T16:37:33;11.50;87.50
9837;DHT22;4957;51.412;6.724;2023-02-15T16:40:00;11.50;87.70
9837;DHT22;4957;51.412;6.724;2023-02-15T16:42:26;11.50;88.00
9837;DHT22;4957;51.412;6.724;2023-02-15T16:45:06;11.40;87.90
9837;DHT22;4957;51.412;6.724;2023-02-15T16:47:36;11.40;87.50
9837;DHT22;4957;51.412;6.724;2023-02-15T16:50:05;11.30;88.00
9837;DHT22;4957;51.412;6.724;2023-02-15T16:52:32;11.30;88.20
9837;DHT22;4957;51.412;6.724;2023-02-15T16:54:59;11.30;88.10
9837;DHT22;4957;51.412;6.724;2023-02-15T16:57:32;11.30;88.10
9837;DHT22;4957;51.412;6.724;2023-02-15T17:00:14;11.20;88.50
9837;DHT22;4957;51.412;6.724;2023-02-15T17:03:05;11.10;88.20
9837;DHT22;4957;51.412;6.724;2023-02-15T17:05:44;11.10;88.40
9837;DHT22;4957;51.412;6.724;2023-02-15T17:08:30;11.00;88.40
9837;DHT22;4957;51.412;6.724;2023-02-15T17:13:28;10.90;89.10
9837;DHT22;4957;51.412;6.724;2023-02-15T17:21:10;10.80;89.30
9837;DHT22;4957;51.412;6.724;2023-02-15T17:23:48;10.80;89.50
9837;DHT22;4957;51.412;6.724;2023-02-15T17:31:36;10.60;89.90
9837;DHT22;4957;51.412;6.724;2023-02-15T17:34:02;10.60;90.30
9837;DHT22;4957;51.412;6.724;2023-02-15T17:36:30;10.60;90.40
9837;DHT22;4957;51.412;6.724;2023-02-15T17:41:29;10.50;90.40
9837;DHT22;4957;51.412;6.724;2023-02-15T17:43:56;10.50;90.60
9837;DHT22;4957;51.412;6.724;2023-02-15T17:46:22;10.40;90.70
9837;DHT22;4957;51.412;6.724;2023-02-15T17:48:50;10.40;90.90
9837;DHT22;4957;51.412;6.724;2023-02-15T17:51:17;10.40;91.00
9837;DHT22;4957;51.412;6.724;2023-02-15T17:53:44;10.40;91.10
9837;DHT22;4957;51.412;6.724;2023-02-15T17:56:30;10.30;91.00
9837;DHT22;4957;51.412;6.724;2023-02-15T17:58:56;10.30;91.40
9837;DHT22;4957;51.412;6.724;2023-02-15T18:01:22;10.30;91.20
9837;DHT22;4957;51.412;6.724;2023-02-15T18:04:11;10.30;91.30
9837;DHT22;4957;51.412;6.724;2023-02-15T18:06:56;10.30;91.20
9837;DHT22;4957;51.412;6.724;2023-02-15T18:09:41;10.20;91.40
9837;DHT22;4957;51.412;6.724;2023-02-15T18:12:33;10.20;91.30
9837;DHT22;4957;51.412;6.724;2023-02-15T18:14:59;10.20;91.40
9837;DHT22;4957;51.412;6.724;2023-02-15T18:17:29;10.10;91.40
9837;DHT22;4957;51.412;6.724;2023-02-15T18:19:57;10.10;91.40
9837;DHT22;4957;51.412;6.724;2023-02-15T18:22:23;10.10;91.40
9837;DHT22;4957;51.412;6.724;2023-02-15T18:24:48;10.10;91.40
9837;DHT22;4957;51.412;6.724;2023-02-15T18:27:15;10.10;91.50
9837;DHT22;4957;51.412;6.724;2023-02-15T18:29:41;10.10;91.60
9837;DHT22;4957;51.412;6.724;2023-02-15T18:32:12;10.10;91.70
9837;DHT22;4957;51.412;6.724;2023-02-15T18:34:40;10.10;91.60
9837;DHT22;4957;51.412;6.724;2023-02-15T18:37:13;10.10;91.80
9837;DHT22;4957;51.412;6.724;2023-02-15T18:39:47;10.00;91.70
9837;DHT22;4957;51.412;6.724;2023-02-15T18:42:27;10.00;91.70
9837;DHT22;4957;51.412;6.724;2023-02-15T18:45:16;10.00;91.70
9837;DHT22;4957;51.412;6.724;2023-02-15T18:47:46;10.00;91.80
9837;DHT22;4957;51.412;6.724;2023-02-15T18:50:14;9.90;92.60
9837;DHT22;4957;51.412;6.724;2023-02-15T18:52:40;9.90;92.60
9837;DHT22;4957;51.412;6.724;2023-02-15T18:55:33;9.90;92.60
9837;DHT22;4957;51.412;6.724;2023-02-15T18:58:22;9.90;92.60
9837;DHT22;4957;51.412;6.724;2023-02-15T19:00:50;9.80;92.60
9837;DHT22;4957;51.412;6.724;2023-02-15T19:03:22;9.80;92.60
9837;DHT22;4957;51.412;6.724;2023-02-15T19:05:59;9.80;92.60
9837;DHT22;4957;51.412;6.724;2023-02-15T19:08:25;9.80;92.80
9837;DHT22;4957;51.412;6.724;2023-02-15T19:10:51;9.80;92.70
9837;DHT22;4957;51.412;6.724;2023-02-15T19:13:16;9.70;92.70
9837;DHT22;4957;51.412;6.724;2023-02-15T19:15:43;9.70;92.80
9837;DHT22;4957;51.412;6.724;2023-02-15T19:18:12;9.70;92.80
9837;DHT22;4957;51.412;6.724;2023-02-15T19:20:41;9.70;92.50
9837;DHT22;4957;51.412;6.724;2023-02-15T19:23:17;9.60;92.60
9837;DHT22;4957;51.412;6.724;2023-02-15T19:25:46;9.60;92.70
9837;DHT22;4957;51.412;6.724;2023-02-15T19:28:22;9.60;92.80
9837;DHT22;4957;51.412;6.724;2023-02-15T19:30:50;9.60;92.80
9837;DHT22;4957;51.412;6.724;2023-02-15T19:33:18;9.60;93.00
9837;DHT22;4957;51.412;6.724;2023-02-15T19:35:46;9.50;92.90
9837;DHT22;4957;51.412;6.724;2023-02-15T19:38:19;9.50;92.80
9837;DHT22;4957;51.412;6.724;2023-02-15T19:40:45;9.50;92.80
9837;DHT22;4957;51.412;6.724;2023-02-15T19:43:19;9.50;93.00
9837;DHT22;4957;51.412;6.724;2023-02-15T19:45:47;9.50;93.00
9837;DHT22;4957;51.412;6.724;2023-02-15T19:48:17;9.50;93.00
9837;DHT22;4957;51.412;6.724;2023-02-15T19:50:44;9.40;93.00
9837;DHT22;4957;51.412;6.724;2023-02-15T19:53:21;9.40;93.00
9837;DHT22;4957;51.412;6.724;2023-02-15T19:55:48;9.40;93.00
9837;DHT22;4957;51.412;6.724;2023-02-15T19:58:15;9.40;93.20
9837;DHT22;4957;51.412;6.724;2023-02-15T20:00:44;9.40;93.20
9837;DHT22;4957;51.412;6.724;2023-02-15T20:03:10;9.30;93.60
9837;DHT22;4957;51.412;6.724;2023-02-15T20:05:36;9.30;93.30
9837;DHT22;4957;51.412;6.724;2023-02-15T20:08:14;9.30;93.40
9837;DHT22;4957;51.412;6.724;2023-02-15T20:10:40;9.20;93.40